createdAt,value
2019-03-10T00:01:35.221Z,7.30
2019-03-10T00:04:03.358Z,7.20
2019-03-10T00:06:31.202Z,7.10
2019-03-10T00:08:59.048Z,6.90
2019-03-10T00:11:26.860Z,7.10
2019-03-10T00:13:54.678Z,7.10
2019-03-10T00:16:22.455Z,7.10
2019-03-10T00:18:50.272Z,7.10
2019-03-10T00:21:18.011Z,7.10
2019-03-10T00:23:45.872Z,7.10
2019-03-10T00:26:13.639Z,7.10
2019-03-10T00:28:41.414Z,7.20
2019-03-10T00:31:09.243Z,7.10
2019-03-10T00:33:37.062Z,7.20
2019-03-10T00:36:04.901Z,7.20
2019-03-10T00:39:13.580Z,7.20
2019-03-10T00:42:35.261Z,7.20
2019-03-10T00:46:21.167Z,7.20
2019-03-10T00:49:38.581Z,7.20
2019-03-10T00:52:18.221Z,7.00
2019-03-10T00:54:49.013Z,7.10
2019-03-10T00:57:16.811Z,7.10
2019-03-10T00:59:44.538Z,6.90
2019-03-10T01:02:15.639Z,7.50
2019-03-10T01:04:43.640Z,7.10
2019-03-10T01:07:12.754Z,7.10
2019-03-10T01:09:40.525Z,7.10
2019-03-10T01:12:08.640Z,7.00
2019-03-10T01:14:36.556Z,7.00
2019-03-10T01:17:04.524Z,7.00
2019-03-10T01:19:32.963Z,7.00
2019-03-10T01:22:00.783Z,7.00
2019-03-10T01:24:28.912Z,7.00
2019-03-10T01:26:56.701Z,7.00
2019-03-10T01:29:24.549Z,7.00
2019-03-10T01:32:57.305Z,7.00
2019-03-10T01:35:30.768Z,7.00
2019-03-10T01:37:58.690Z,6.90
2019-03-10T01:40:26.513Z,6.90
2019-03-10T01:42:54.301Z,6.90
2019-03-10T01:45:22.285Z,7.00
2019-03-10T01:47:50.144Z,6.70
2019-03-10T01:50:17.896Z,6.90
2019-03-10T01:52:45.707Z,7.40
2019-03-10T01:55:13.548Z,6.70
2019-03-10T01:57:41.410Z,7.00
2019-03-10T02:00:12.609Z,7.10
2019-03-10T02:02:40.482Z,7.10
2019-03-10T02:05:08.391Z,7.10
2019-03-10T02:07:36.248Z,7.00
2019-03-10T02:10:06.033Z,7.00
2019-03-10T02:12:33.830Z,7.00
2019-03-10T02:15:41.768Z,6.90
2019-03-10T02:18:09.563Z,6.90
2019-03-10T02:20:37.396Z,6.90
2019-03-10T02:23:05.245Z,6.90
2019-03-10T02:25:33.168Z,6.90
2019-03-10T02:28:01.072Z,6.90
2019-03-10T02:30:28.845Z,7.00
2019-03-10T02:32:56.583Z,7.00
2019-03-10T02:35:24.532Z,7.00
2019-03-10T02:37:52.394Z,7.00
2019-03-10T02:40:20.223Z,7.00
2019-03-10T02:42:47.961Z,6.70
2019-03-10T02:45:15.914Z,6.90
2019-03-10T02:47:43.731Z,7.10
2019-03-10T02:50:11.891Z,7.10
2019-03-10T02:52:39.703Z,7.10
2019-03-10T02:55:08.275Z,7.10
2019-03-10T02:57:36.066Z,7.10
2019-03-10T03:00:06.705Z,7.10
2019-03-10T03:02:34.488Z,7.10
2019-03-10T03:05:02.307Z,7.20
2019-03-10T03:07:30.144Z,7.20
2019-03-10T03:09:57.948Z,7.30
2019-03-10T03:12:25.732Z,7.60
2019-03-10T03:14:53.481Z,7.20
2019-03-10T03:17:21.280Z,7.20
2019-03-10T03:19:49.078Z,7.10
2019-03-10T03:22:16.869Z,7.00
2019-03-10T03:24:44.641Z,6.90
2019-03-10T03:27:12.509Z,6.90
2019-03-10T03:29:40.227Z,6.60
2019-03-10T03:32:08.013Z,6.90
2019-03-10T03:34:36.042Z,6.90
2019-03-10T03:37:04.897Z,6.90
2019-03-10T03:39:43.377Z,6.70
2019-03-10T03:42:11.180Z,6.90
2019-03-10T03:44:38.997Z,6.90
2019-03-10T03:47:06.802Z,6.90
2019-03-10T03:49:34.560Z,6.90
2019-03-10T03:52:02.363Z,6.90
2019-03-10T03:54:30.151Z,7.00
2019-03-10T03:56:57.926Z,7.00
2019-03-10T03:59:25.728Z,7.00
2019-03-10T04:02:00.729Z,7.00
2019-03-10T04:04:28.634Z,7.00
2019-03-10T04:06:56.455Z,6.60
2019-03-10T04:09:24.264Z,7.10
2019-03-10T04:11:52.055Z,7.10
2019-03-10T04:14:19.839Z,7.20
2019-03-10T04:16:47.631Z,7.20
2019-03-10T04:19:15.349Z,7.10
2019-03-10T04:21:43.180Z,7.10
2019-03-10T04:24:11.029Z,7.10
2019-03-10T04:26:38.946Z,7.10
2019-03-10T04:29:06.693Z,6.90
2019-03-10T04:31:34.458Z,6.90
2019-03-10T04:34:12.564Z,7.00
2019-03-10T04:36:40.369Z,6.70
2019-03-10T04:39:08.128Z,7.00
2019-03-10T04:41:35.955Z,6.60
2019-03-10T04:44:08.876Z,7.10
2019-03-10T04:46:36.669Z,7.20
2019-03-10T04:49:04.432Z,7.20
2019-03-10T04:51:32.264Z,7.20
2019-03-10T04:54:00.005Z,7.10
2019-03-10T04:56:32.712Z,7.10
2019-03-10T04:59:00.540Z,7.10
2019-03-10T05:01:28.409Z,6.90
2019-03-10T05:03:56.190Z,7.10
2019-03-10T05:06:23.998Z,7.20
2019-03-10T05:08:51.839Z,7.10
2019-03-10T05:11:19.675Z,7.00
2019-03-10T05:13:47.438Z,7.10
2019-03-10T05:16:15.165Z,7.10
2019-03-10T05:18:42.920Z,7.20
2019-03-10T05:21:10.690Z,7.20
2019-03-10T05:23:41.028Z,7.20
2019-03-10T05:26:08.941Z,7.60
2019-03-10T05:28:43.288Z,7.10
2019-03-10T05:31:11.041Z,7.10
2019-03-10T05:33:38.813Z,7.10
2019-03-10T05:36:06.637Z,7.10
2019-03-10T05:38:34.453Z,7.10
2019-03-10T05:41:02.203Z,7.10
2019-03-10T05:43:30.017Z,7.10
2019-03-10T05:45:57.980Z,7.00
2019-03-10T05:48:25.784Z,7.00
2019-03-10T05:50:53.565Z,7.00
2019-03-10T05:53:21.401Z,7.10
2019-03-10T05:55:54.296Z,7.00
2019-03-10T05:58:22.370Z,6.90
2019-03-10T06:00:50.168Z,7.00
2019-03-10T06:03:18.067Z,7.00
2019-03-10T06:05:46.087Z,6.90
2019-03-10T06:08:13.900Z,6.90
2019-03-10T06:10:41.714Z,6.90
2019-03-10T06:13:09.533Z,7.00
2019-03-10T06:15:52.733Z,7.00
2019-03-10T06:18:20.567Z,7.00
2019-03-10T06:20:48.298Z,7.00
2019-03-10T06:23:16.119Z,7.10
2019-03-10T06:25:49.023Z,7.10
2019-03-10T06:28:16.833Z,7.10
2019-03-10T06:30:44.577Z,7.10
2019-03-10T06:33:12.335Z,7.10
2019-03-10T06:35:45.248Z,7.20
2019-03-10T06:38:12.981Z,7.20
2019-03-10T06:40:40.771Z,7.20
2019-03-10T06:43:08.591Z,7.30
2019-03-10T06:45:36.391Z,7.30
2019-03-10T06:48:04.238Z,7.30
2019-03-10T06:50:32.003Z,7.30
2019-03-10T06:52:59.787Z,7.30
2019-03-10T06:55:27.670Z,7.30
2019-03-10T06:57:55.460Z,7.30
2019-03-10T07:00:23.251Z,7.30
2019-03-10T07:02:51.031Z,7.30
2019-03-10T07:05:28.913Z,7.30
2019-03-10T07:07:56.706Z,7.40
2019-03-10T07:10:24.540Z,7.40
2019-03-10T07:12:52.325Z,7.50
2019-03-10T07:15:25.159Z,7.50
2019-03-10T07:17:52.930Z,7.50
2019-03-10T07:20:20.758Z,7.50
2019-03-10T07:22:48.605Z,7.60
2019-03-10T07:25:21.501Z,7.80
2019-03-10T07:27:58.344Z,7.90
2019-03-10T07:30:37.469Z,7.90
2019-03-10T07:33:20.167Z,8.00
2019-03-10T07:36:05.882Z,8.10
2019-03-10T07:38:51.998Z,8.20
2019-03-10T07:41:41.984Z,8.30
2019-03-10T07:44:18.327Z,8.40
2019-03-10T07:47:08.224Z,8.40
2019-03-10T07:49:55.689Z,8.40
2019-03-10T07:52:43.073Z,8.40
2019-03-10T07:55:46.335Z,8.50
2019-03-10T07:58:33.722Z,8.60
2019-03-10T08:01:35.969Z,8.50
2019-03-10T08:04:31.454Z,8.70
2019-03-10T08:07:07.710Z,8.80
2019-03-10T08:09:55.115Z,8.30
2019-03-10T08:12:42.526Z,8.70
2019-03-10T08:15:30.114Z,8.80
2019-03-10T08:18:23.600Z,8.70
2019-03-10T08:21:00.362Z,8.90
2019-03-10T08:23:57.008Z,9.00
2019-03-10T08:26:33.337Z,9.00
2019-03-10T08:29:19.575Z,9.00
2019-03-10T08:32:06.957Z,9.10
2019-03-10T08:34:57.492Z,9.20
2019-03-10T08:37:39.189Z,9.10
2019-03-10T08:40:26.956Z,9.10
2019-03-10T08:43:10.963Z,9.20
2019-03-10T08:45:56.895Z,9.20
2019-03-10T08:48:45.929Z,9.20
2019-03-10T08:51:31.291Z,9.40
2019-03-10T08:54:10.015Z,9.20
2019-03-10T08:57:00.601Z,9.20
2019-03-10T08:59:54.075Z,9.20
2019-03-10T09:02:50.491Z,9.40
2019-03-10T09:05:36.642Z,9.50
2019-03-10T09:08:26.928Z,9.50
2019-03-10T09:11:10.864Z,9.70
2019-03-10T09:13:56.780Z,9.90
2019-03-10T09:16:56.547Z,10.10
2019-03-10T09:19:52.791Z,9.50
2019-03-10T09:22:52.256Z,10.10
2019-03-10T09:25:38.387Z,10.20
2019-03-10T09:28:16.423Z,10.40
2019-03-10T09:31:00.210Z,10.50
2019-03-10T09:33:42.592Z,10.40
2019-03-10T09:36:27.528Z,10.30
2019-03-10T09:39:17.409Z,10.40
2019-03-10T09:42:16.650Z,10.50
2019-03-10T09:44:59.328Z,10.80
2019-03-10T09:47:56.873Z,11.20
2019-03-10T09:51:02.367Z,11.50
2019-03-10T09:53:49.764Z,11.80
2019-03-10T09:56:38.345Z,11.90
2019-03-10T09:59:25.890Z,12.10
2019-03-10T10:02:18.832Z,12.50
2019-03-10T10:05:12.516Z,12.50
2019-03-10T10:07:49.250Z,12.60
2019-03-10T10:10:39.668Z,12.80
2019-03-10T10:13:45.239Z,12.90
2019-03-10T10:16:20.984Z,12.90
2019-03-10T10:19:09.295Z,12.90
2019-03-10T10:21:55.288Z,13.10
2019-03-10T10:25:05.826Z,13.10
2019-03-10T10:27:52.077Z,13.30
2019-03-10T10:30:30.776Z,13.00
2019-03-10T10:33:13.057Z,12.90
2019-03-10T10:36:06.268Z,12.80
2019-03-10T10:38:52.513Z,12.20
2019-03-10T10:41:52.220Z,12.80
2019-03-10T10:44:45.421Z,12.80
2019-03-10T10:47:27.859Z,12.80
2019-03-10T10:50:14.060Z,12.90
2019-03-10T10:53:21.487Z,13.00
2019-03-10T10:56:21.253Z,13.50
2019-03-10T10:58:56.280Z,13.20
2019-03-10T11:01:32.408Z,12.80
2019-03-10T11:04:13.194Z,12.80
2019-03-10T11:07:03.652Z,12.70
2019-03-10T11:09:49.712Z,12.80
2019-03-10T11:12:40.376Z,13.00
2019-03-10T11:15:27.804Z,13.20
2019-03-10T11:18:17.983Z,13.10
2019-03-10T11:20:56.288Z,12.90
2019-03-10T11:23:38.172Z,12.80
2019-03-10T11:26:14.491Z,13.40
2019-03-10T11:28:48.275Z,13.40
2019-03-10T11:31:29.664Z,13.30
2019-03-10T11:34:14.333Z,13.50
2019-03-10T11:36:52.228Z,13.40
2019-03-10T11:39:42.401Z,13.50
2019-03-10T11:42:32.554Z,13.50
2019-03-10T11:45:26.084Z,13.10
2019-03-10T11:48:03.717Z,13.20
2019-03-10T11:50:51.091Z,13.10
2019-03-10T11:53:56.857Z,12.90
2019-03-10T11:56:43.089Z,12.90
2019-03-10T11:59:18.796Z,12.90
2019-03-10T12:01:57.998Z,13.70
2019-03-10T12:05:06.749Z,13.70
2019-03-10T12:08:00.176Z,13.80
2019-03-10T12:10:28.031Z,14.70
2019-03-10T12:12:55.835Z,16.10
2019-03-10T12:15:23.940Z,16.50
2019-03-10T12:17:53.186Z,17.00
2019-03-10T12:20:20.999Z,16.90
2019-03-10T12:22:48.775Z,16.70
2019-03-10T12:25:16.768Z,18.10
2019-03-10T12:27:47.590Z,17.30
2019-03-10T12:30:15.640Z,18.10
2019-03-10T12:32:43.532Z,18.00
2019-03-10T12:35:11.678Z,18.50
2019-03-10T12:37:39.457Z,18.10
2019-03-10T12:40:07.814Z,18.60
2019-03-10T12:42:35.604Z,19.60
2019-03-10T12:45:04.028Z,19.30
2019-03-10T12:47:31.763Z,17.60
2019-03-10T12:49:59.614Z,18.00
2019-03-10T12:52:27.475Z,19.50
2019-03-10T12:54:55.446Z,19.60
2019-03-10T12:57:23.248Z,19.00
2019-03-10T12:59:51.154Z,20.20
2019-03-10T13:02:18.947Z,19.70
2019-03-10T13:04:46.892Z,18.20
2019-03-10T13:07:14.749Z,17.30
2019-03-10T13:09:42.563Z,16.40
2019-03-10T13:12:10.428Z,15.70
2019-03-10T13:14:38.227Z,15.30
2019-03-10T13:17:06.056Z,14.20
2019-03-10T13:19:33.841Z,13.00
2019-03-10T13:22:01.606Z,13.10
2019-03-10T13:24:29.460Z,12.20
2019-03-10T13:26:59.091Z,11.70
2019-03-10T13:29:26.906Z,11.40
2019-03-10T13:31:54.743Z,11.40
2019-03-10T13:34:22.639Z,11.60
2019-03-10T13:36:52.027Z,11.80
2019-03-10T13:39:19.918Z,13.20
2019-03-10T13:41:47.771Z,14.20
2019-03-10T13:44:15.559Z,15.10
2019-03-10T13:46:44.024Z,15.10
2019-03-10T13:49:11.974Z,14.40
2019-03-10T13:51:39.800Z,13.90
2019-03-10T13:54:10.161Z,13.50
2019-03-10T13:56:38.114Z,12.60
2019-03-10T13:59:05.930Z,12.60
2019-03-10T14:01:33.782Z,12.40
2019-03-10T14:04:01.980Z,12.30
2019-03-10T14:06:29.797Z,12.10
2019-03-10T14:08:57.558Z,12.50
2019-03-10T14:11:25.385Z,12.70
2019-03-10T14:14:00.047Z,12.50
2019-03-10T14:16:30.703Z,12.30
2019-03-10T14:18:58.567Z,12.30
2019-03-10T14:21:26.382Z,12.20
2019-03-10T14:23:54.423Z,12.30
2019-03-10T14:26:22.240Z,12.30
2019-03-10T14:28:50.071Z,12.30
2019-03-10T14:31:17.858Z,12.30
2019-03-10T14:33:45.684Z,12.30
2019-03-10T14:36:13.527Z,12.60
2019-03-10T14:38:41.381Z,12.80
2019-03-10T14:41:09.260Z,12.80
2019-03-10T14:43:37.164Z,12.90
2019-03-10T14:46:05.095Z,13.00
2019-03-10T14:48:32.877Z,13.00
2019-03-10T14:51:00.770Z,13.10
2019-03-10T14:53:28.644Z,13.20
2019-03-10T14:56:01.630Z,13.50
2019-03-10T14:58:29.583Z,13.60
2019-03-10T15:00:57.670Z,13.60
2019-03-10T15:03:25.523Z,13.60
2019-03-10T15:05:53.641Z,13.50
2019-03-10T15:08:21.461Z,13.60
2019-03-10T15:10:49.335Z,13.60
2019-03-10T15:13:17.219Z,13.70
2019-03-10T15:15:45.069Z,13.70
2019-03-10T15:18:12.946Z,13.50
2019-03-10T15:20:40.770Z,13.50
2019-03-10T15:23:08.590Z,13.50
2019-03-10T15:25:36.467Z,13.50
2019-03-10T15:28:04.247Z,13.40
2019-03-10T15:30:32.133Z,13.40
2019-03-10T15:32:59.921Z,13.20
2019-03-10T15:35:27.761Z,13.40
2019-03-10T15:37:55.673Z,13.30
2019-03-10T15:40:23.519Z,13.20
2019-03-10T15:42:51.333Z,13.20
2019-03-10T15:45:19.210Z,13.00
2019-03-10T15:47:47.015Z,13.20
2019-03-10T15:50:21.007Z,13.00
2019-03-10T15:52:48.804Z,12.90
2019-03-10T15:55:16.574Z,12.80
2019-03-10T15:57:50.064Z,12.90
2019-03-10T16:00:16.054Z,12.80
2019-03-10T16:02:43.942Z,12.70
2019-03-10T16:05:11.911Z,12.60
2019-03-10T16:07:39.681Z,12.60
2019-03-10T16:10:08.591Z,12.60
2019-03-10T16:12:36.428Z,12.50
2019-03-10T16:15:05.575Z,12.50
2019-03-10T16:17:33.352Z,12.50
2019-03-10T16:20:01.114Z,12.50
2019-03-10T16:22:28.912Z,12.60
2019-03-10T16:24:56.923Z,12.50
2019-03-10T16:27:24.744Z,12.40
2019-03-10T16:29:52.552Z,12.40
2019-03-10T16:32:20.349Z,12.30
2019-03-10T16:34:58.475Z,12.10
2019-03-10T16:37:45.855Z,12.10
2019-03-10T16:40:14.158Z,12.40
2019-03-10T16:42:42.057Z,12.10
2019-03-10T16:45:14.122Z,12.00
2019-03-10T16:47:41.849Z,11.80
2019-03-10T16:50:11.113Z,11.90
2019-03-10T16:52:38.894Z,11.80
2019-03-10T16:55:08.451Z,11.80
2019-03-10T16:57:36.267Z,11.80
2019-03-10T17:00:06.016Z,11.70
2019-03-10T17:02:33.823Z,11.70
2019-03-10T17:05:01.837Z,11.60
2019-03-10T17:07:29.674Z,11.60
2019-03-10T17:09:59.282Z,11.20
2019-03-10T17:12:27.111Z,11.50
2019-03-10T17:14:55.007Z,11.50
2019-03-10T17:17:22.815Z,11.40
2019-03-10T17:19:50.783Z,11.40
2019-03-10T17:22:33.209Z,11.30
2019-03-10T17:25:06.694Z,11.30
2019-03-10T17:27:34.531Z,11.00
2019-03-10T17:30:02.458Z,11.20
2019-03-10T17:32:30.289Z,11.10
2019-03-10T17:34:58.219Z,11.00
2019-03-10T17:37:26.027Z,11.00
2019-03-10T17:39:53.844Z,11.00
2019-03-10T17:42:21.675Z,10.90
2019-03-10T17:44:49.686Z,10.80
2019-03-10T17:47:17.428Z,10.80
2019-03-10T17:49:45.169Z,10.60
2019-03-10T17:52:14.707Z,10.50
2019-03-10T17:54:43.255Z,10.40
2019-03-10T17:57:11.110Z,10.20
2019-03-10T17:59:39.001Z,9.80
2019-03-10T18:02:09.246Z,9.60
2019-03-10T18:04:36.687Z,9.30
2019-03-10T18:07:04.604Z,9.30
2019-03-10T18:09:32.454Z,9.30
2019-03-10T18:12:00.307Z,9.10
2019-03-10T18:14:52.817Z,9.10
2019-03-10T18:17:20.653Z,9.00
2019-03-10T18:19:48.524Z,8.90
2019-03-10T18:22:16.397Z,8.90
2019-03-10T18:24:44.284Z,8.50
2019-03-10T18:27:12.080Z,8.80
2019-03-10T18:29:39.901Z,8.50
2019-03-10T18:32:07.682Z,8.50
2019-03-10T18:34:35.711Z,8.10
2019-03-10T18:37:03.588Z,7.90
2019-03-10T18:39:31.418Z,7.30
2019-03-10T18:41:59.152Z,6.80
2019-03-10T18:44:27.047Z,6.80
2019-03-10T18:46:54.858Z,6.80
2019-03-10T18:49:22.718Z,6.50
2019-03-10T18:51:50.657Z,6.50
2019-03-10T18:54:18.429Z,6.40
2019-03-10T18:56:46.279Z,6.40
2019-03-10T18:59:14.263Z,6.60
2019-03-10T19:01:42.142Z,6.70
2019-03-10T19:04:10.101Z,6.80
2019-03-10T19:06:37.986Z,6.80
2019-03-10T19:09:06.732Z,6.80
2019-03-10T19:11:34.601Z,6.80
2019-03-10T19:14:07.625Z,6.90
2019-03-10T19:16:35.428Z,7.00
2019-03-10T19:19:03.327Z,7.00
2019-03-10T19:21:31.163Z,7.00
2019-03-10T19:23:59.302Z,7.00
2019-03-10T19:26:27.582Z,7.00
2019-03-10T19:28:55.487Z,7.10
2019-03-10T19:31:23.346Z,7.10
2019-03-10T19:33:51.321Z,7.10
2019-03-10T19:36:21.712Z,7.10
2019-03-10T19:38:49.679Z,7.10
2019-03-10T19:41:17.693Z,7.20
2019-03-10T19:43:48.854Z,7.10
2019-03-10T19:46:17.009Z,7.10
2019-03-10T19:48:45.040Z,7.20
2019-03-10T19:51:13.468Z,7.10
2019-03-10T19:53:41.474Z,7.20
2019-03-10T19:56:09.401Z,7.20
2019-03-10T19:58:39.726Z,7.20
2019-03-10T20:01:07.512Z,7.20
2019-03-10T20:03:37.749Z,7.20
2019-03-10T20:06:05.446Z,7.10
2019-03-10T20:08:33.408Z,7.20
2019-03-10T20:11:08.108Z,7.10
2019-03-10T20:13:36.195Z,7.10
2019-03-10T20:16:04.258Z,7.10
2019-03-10T20:18:32.101Z,7.10
2019-03-10T20:20:59.943Z,7.10
2019-03-10T20:23:28.122Z,7.10
2019-03-10T20:25:56.040Z,7.10
2019-03-10T20:28:23.878Z,7.10
2019-03-10T20:30:51.755Z,7.10
2019-03-10T20:33:19.604Z,7.00
2019-03-10T20:35:47.418Z,7.00
2019-03-10T20:38:15.217Z,6.90
2019-03-10T20:40:43.092Z,7.00
2019-03-10T20:43:11.146Z,7.00
2019-03-10T20:45:39.060Z,7.00
2019-03-10T20:48:06.957Z,7.00
2019-03-10T20:50:34.785Z,7.00
2019-03-10T20:53:02.757Z,6.90
2019-03-10T20:55:30.634Z,6.90
2019-03-10T20:57:58.461Z,6.90
2019-03-10T21:00:26.496Z,6.90
2019-03-10T21:02:54.436Z,6.90
2019-03-10T21:05:22.299Z,6.90
2019-03-10T21:07:50.148Z,6.90
2019-03-10T21:10:17.971Z,6.80
2019-03-10T21:12:45.911Z,6.90
2019-03-10T21:15:15.472Z,6.80
2019-03-10T21:17:43.392Z,6.90
2019-03-10T21:20:13.759Z,6.90
2019-03-10T21:22:41.653Z,6.90
2019-03-10T21:25:12.841Z,6.90
2019-03-10T21:27:40.719Z,6.80
2019-03-10T21:30:15.739Z,6.90
2019-03-10T21:32:43.575Z,6.90
2019-03-10T21:35:17.555Z,6.90
2019-03-10T21:37:41.045Z,6.90
2019-03-10T21:40:11.416Z,6.90
2019-03-10T21:42:39.235Z,6.80
2019-03-10T21:45:07.841Z,6.80
2019-03-10T21:47:35.711Z,6.80
2019-03-10T21:50:06.296Z,6.90
2019-03-10T21:52:34.123Z,6.90
2019-03-10T21:55:01.996Z,6.90
2019-03-10T21:57:29.788Z,6.80
2019-03-10T21:59:57.586Z,6.90
2019-03-10T22:02:25.370Z,6.90
2019-03-10T22:04:53.156Z,7.30
2019-03-10T22:07:20.982Z,6.70
2019-03-10T22:09:48.819Z,6.70
2019-03-10T22:12:16.595Z,6.60
2019-03-10T22:14:44.424Z,6.60
2019-03-10T22:17:12.343Z,6.60
2019-03-10T22:19:40.190Z,6.90
2019-03-10T22:22:08.018Z,6.50
2019-03-10T22:24:35.820Z,6.50
2019-03-10T22:27:03.619Z,6.40
2019-03-10T22:29:31.413Z,6.50
2019-03-10T22:31:59.198Z,6.40
2019-03-10T22:34:27.209Z,6.40
2019-03-10T22:36:54.988Z,6.00
2019-03-10T22:39:22.794Z,5.80
2019-03-10T22:41:50.555Z,5.70
2019-03-10T22:44:18.556Z,5.50
2019-03-10T22:46:46.351Z,5.60
2019-03-10T22:49:14.172Z,5.40
2019-03-10T22:51:41.977Z,5.40
2019-03-10T22:54:09.878Z,5.30
2019-03-10T22:56:37.651Z,5.20
2019-03-10T22:59:05.501Z,5.30
2019-03-10T23:01:33.338Z,5.30
2019-03-10T23:04:01.291Z,5.30
2019-03-10T23:06:29.146Z,5.20
2019-03-10T23:08:56.989Z,5.00
2019-03-10T23:11:24.785Z,4.40
2019-03-10T23:13:52.555Z,5.20
2019-03-10T23:16:20.392Z,4.40
2019-03-10T23:18:48.242Z,4.20
2019-03-10T23:21:16.048Z,4.00
2019-03-10T23:23:43.880Z,3.90
2019-03-10T23:26:11.651Z,3.90
2019-03-10T23:28:39.493Z,3.70
2019-03-10T23:31:07.254Z,3.70
2019-03-10T23:33:35.067Z,4.10
2019-03-10T23:36:02.848Z,3.70
2019-03-10T23:38:30.598Z,3.60
2019-03-10T23:40:58.391Z,4.20
2019-03-10T23:43:26.170Z,3.60
2019-03-10T23:45:54.007Z,3.60
2019-03-10T23:48:21.882Z,3.60
2019-03-10T23:50:49.693Z,3.70
2019-03-10T23:53:17.522Z,3.80
2019-03-10T23:55:45.529Z,3.70
2019-03-10T23:58:13.355Z,3.80
